Capitol Logistics 773


EBLG
Liège Airport
Liege, BE
OKBK
Kuwait International Airport
Kuwait City, KW

Route Details

Aircraft Information
Primary: Boeing 767-300BDSF
Backup: Not Available
Route Data
Distance: 2299nm
Sched. Duration: 5h 13m
Avg. Duration: 5h 42m (+29m)
Times Flown: 2
Recm'd Route: TUTOV FFM L984 OSBIT UZ205 LULAR Z205 ABUDO Z37 GIMBO INVED M747 CND L5 ADINA L851 KUGOS UW704 SIN CRM UM688 AD AD2D
Planned Altitude: 33,000ft
Origin Wx: EBLG 270920Z 16012KT 8000 -RADZ SCT011 BKN020 02/00 Q0998 BECMG BKN008
Dest. Wx: OKBK 271000Z 34012KT CAVOK 21/08 Q1020 NOSIG
Notes:

Financial History
Total Freight: 147,560lbs
Average Load: 73,780lbs/flt
Fuel Used: 114,415lbs
Avg. Fuel Used: 57,208lbs/flt
Fuel Expense: $127,001
Avg. Fuel Expense: $63,500
Avg. Fuel Cost: $1.11/lbs
Total Gross Income: $342,339
Pilot Pay: $458
Total Expenses: $37,077
Total Revenue: $175,533
Average Revenue: $171,169.60